Airfield :
LOGIN :

Register | Disclaimer

   EN    FR    IT 

 










Legend :    VFR   Marginal VFR   IFR   Intensive IFR   Very Intensive IFR
Visi :
Ceiling :
>= 8 km
>= 3000ft
5 to 8 km
1000 to 3000 ft
1500m to 5 km
500 to 1000 ft
800 to 1500m
200 to 500 ft
< 800m
< 200 ft
Symbols :   Thunderstorms  Fog  Heavy snow  Heavy precipitations  Wind > 20 kt
SIGMETs :     Misc.  Thunderstorms  Icing  Turbulence  Mountain Waves  Volcanic Ashes






- Airport Elevation : 82 ft
- IATA code : AAR


EKAH - Aarhus Tirstrup

CURRENT METAR :
  • 150420Z AUTO 22006KT 160V280 9999NDV NCD 04/02 Q0988

EXPIRED METARs :
  • 150350Z AUTO 22006KT 170V290 9999NDV NCD 04/02 Q0988
  • 150320Z AUTO 23008KT 180V270 9999NDV NCD 04/02 Q0988
  • 150250Z AUTO 24008KT 190V280 9999NDV FEW034/// 05/02 Q0988
  • 150220Z AUTO 24008G18KT 190V270 9999NDV NCD 05/03 Q0988
  • 150150Z AUTO 24009KT 190V280 9999NDV FEW026/// 05/03 Q0987

TAF TAF EKAH
Valid from the 15 at 00:00 until the 16 at 00:00 UTC


142353Z 1500/1524 24010KT 9999 SCT020
TEMPO 1500/1509 SHRA SCT015CB
BECMG 1509/1511 16018G30KT 2000 RA BKN005 BKN050CB
BECMG 1511/1513 22018G30KT 9999 NSW BKN020
TEMPO 1513/1520 26022G35KT SHRA BKN012 BKN020CB
BECMG 1520/1522 24010KT
TEMPO 1520/1524 SCT020CB



MET'MAP, your aeronautical weather chart ! - Copyright ORBIFLY December 2007 - Disclaimer

ORBIFLY MET'MAP TEAM :

Programming & Development : Alexandra Zaïnal
Concept & original design : Baudouin d'Aumeries
Assistance for programming : Marc-Olivier Méhu
Technical & hardware support : Manuel Goepfert

Contact : metmap@orbifly.com




SOURCES & CREDITS :

   NOAA